createdAt,value
2024-05-09T00:02:02.802Z,16.80
2024-05-09T00:05:20.977Z,16.84
2024-05-09T00:08:41.894Z,16.91
2024-05-09T00:12:10.989Z,16.89
2024-05-09T00:15:20.338Z,16.75
2024-05-09T00:18:41.803Z,16.80
2024-05-09T00:21:49.928Z,16.76
2024-05-09T00:25:04.651Z,16.79
2024-05-09T00:28:21.520Z,16.83
2024-05-09T00:31:49.906Z,16.61
2024-05-09T00:35:14.621Z,16.74
2024-05-09T00:38:36.539Z,16.66
2024-05-09T00:41:46.632Z,16.84
2024-05-09T00:44:57.667Z,16.91
2024-05-09T00:48:08.481Z,16.81
2024-05-09T00:51:13.796Z,16.88
2024-05-09T00:54:20.148Z,16.79
2024-05-09T00:57:36.703Z,16.76
2024-05-09T01:01:01.675Z,16.75
2024-05-09T01:04:23.282Z,16.69
2024-05-09T01:07:47.505Z,16.67
2024-05-09T01:10:53.615Z,16.62
2024-05-09T01:14:17.507Z,16.66
2024-05-09T01:17:54.608Z,16.52
2024-05-09T01:21:08.607Z,16.65
2024-05-09T01:24:32.387Z,16.74
2024-05-09T01:27:37.094Z,16.58
2024-05-09T01:30:47.762Z,16.45
2024-05-09T01:33:55.509Z,16.12
2024-05-09T01:37:09.604Z,16.05
2024-05-09T01:40:22.017Z,16.12
2024-05-09T01:43:32.143Z,16.29
2024-05-09T01:46:46.609Z,16.40
2024-05-09T01:49:51.425Z,16.53
2024-05-09T01:53:01.958Z,16.48
2024-05-09T01:56:24.281Z,16.44
2024-05-09T01:59:46.768Z,16.57
2024-05-09T02:02:58.115Z,16.53
2024-05-09T02:06:21.326Z,16.39
2024-05-09T02:09:54.317Z,16.38
2024-05-09T02:13:02.826Z,16.54
2024-05-09T02:16:28.292Z,16.43
2024-05-09T02:19:50.250Z,16.49
2024-05-09T02:22:57.830Z,16.53
2024-05-09T02:26:14.413Z,16.58
2024-05-09T02:29:38.276Z,16.40
2024-05-09T02:32:44.544Z,16.16
2024-05-09T02:35:57.436Z,16.24
2024-05-09T02:39:13.944Z,16.10
2024-05-09T02:42:33.510Z,16.23
2024-05-09T02:45:55.550Z,16.17
2024-05-09T02:49:01.624Z,16.28
2024-05-09T02:52:09.276Z,16.34
2024-05-09T02:55:17.767Z,16.33
2024-05-09T02:58:39.346Z,16.31
2024-05-09T03:01:56.638Z,16.16
2024-05-09T03:05:17.294Z,16.25
2024-05-09T03:08:40.249Z,16.29
2024-05-09T03:11:50.804Z,16.24
2024-05-09T03:15:07.321Z,16.26
2024-05-09T03:18:37.320Z,16.11
2024-05-09T03:22:04.240Z,16.06
2024-05-09T03:25:28.302Z,16.11
2024-05-09T03:28:49.349Z,16.18
2024-05-09T03:32:11.168Z,16.28
2024-05-09T03:35:18.117Z,16.26
2024-05-09T03:38:25.047Z,16.23
2024-05-09T03:41:46.883Z,16.31
2024-05-09T03:45:00.399Z,16.29
2024-05-09T03:48:04.021Z,16.24
2024-05-09T03:51:18.494Z,16.21
2024-05-09T03:54:34.203Z,16.22
2024-05-09T03:57:52.225Z,16.29
2024-05-09T04:01:13.715Z,16.18
2024-05-09T04:04:18.987Z,16.22
2024-05-09T04:07:27.542Z,16.17
2024-05-09T04:10:34.608Z,16.34
2024-05-09T04:13:56.867Z,16.33
2024-05-09T04:17:01.508Z,16.27
2024-05-09T04:20:08.623Z,16.25
2024-05-09T04:23:15.925Z,16.03
2024-05-09T04:26:32.557Z,16.28
2024-05-09T04:29:59.209Z,16.35
2024-05-09T04:33:27.241Z,16.51
2024-05-09T04:36:40.261Z,16.50
2024-05-09T04:39:49.560Z,16.50
2024-05-09T04:43:11.843Z,16.35
2024-05-09T04:46:21.585Z,16.58
2024-05-09T04:49:28.942Z,16.36
2024-05-09T04:52:54.286Z,16.28
2024-05-09T04:56:26.056Z,16.45
2024-05-09T04:59:51.482Z,16.56
2024-05-09T05:02:56.958Z,16.51
2024-05-09T05:06:22.511Z,16.43
2024-05-09T05:10:01.259Z,16.57
2024-05-09T05:13:18.425Z,16.87
2024-05-09T05:16:31.734Z,16.88
2024-05-09T05:19:52.300Z,16.89
2024-05-09T05:22:57.043Z,16.91
2024-05-09T05:26:12.556Z,17.07
2024-05-09T05:29:21.249Z,17.13
2024-05-09T05:32:34.590Z,17.14
2024-05-09T05:35:43.603Z,17.30
2024-05-09T05:38:52.379Z,17.35
2024-05-09T05:41:59.496Z,17.28
2024-05-09T05:45:09.971Z,17.30
2024-05-09T05:48:23.668Z,17.34
2024-05-09T05:51:44.868Z,17.29
2024-05-09T05:55:02.088Z,17.21
2024-05-09T05:58:23.901Z,17.23
2024-05-09T06:01:32.248Z,17.10
2024-05-09T06:04:47.654Z,17.12
2024-05-09T06:08:01.286Z,17.15
2024-05-09T06:11:16.593Z,17.15
2024-05-09T06:14:23.270Z,17.31
2024-05-09T06:17:28.351Z,17.34
2024-05-09T06:20:37.135Z,17.25
2024-05-09T06:23:53.878Z,17.34
2024-05-09T06:27:13.099Z,17.17
2024-05-09T06:30:49.803Z,17.23
2024-05-09T06:34:14.221Z,17.25
2024-05-09T06:37:29.017Z,17.25
2024-05-09T06:40:42.569Z,17.43
2024-05-09T06:43:55.464Z,17.59
2024-05-09T06:47:12.581Z,17.63
2024-05-09T06:50:24.269Z,17.37
2024-05-09T06:53:48.271Z,17.43
2024-05-09T06:57:22.957Z,17.44
2024-05-09T07:00:41.211Z,17.76
2024-05-09T07:03:47.186Z,18.05
2024-05-09T07:07:13.864Z,18.02
2024-05-09T07:10:35.057Z,18.32
2024-05-09T07:14:07.151Z,18.12
2024-05-09T07:17:44.924Z,18.28
2024-05-09T07:20:56.713Z,18.02
2024-05-09T07:24:20.900Z,18.18
2024-05-09T07:27:46.879Z,18.33
2024-05-09T07:30:59.209Z,18.13
2024-05-09T07:34:03.664Z,18.17
2024-05-09T07:37:14.088Z,18.49
2024-05-09T07:40:28.544Z,18.48
2024-05-09T07:43:49.306Z,18.64
2024-05-09T07:53:39.974Z,18.64
2024-05-09T07:56:50.336Z,18.14
2024-05-09T07:59:56.166Z,18.55
2024-05-09T08:03:07.851Z,18.39
2024-05-09T08:06:31.764Z,18.53
2024-05-09T08:09:40.805Z,18.67
2024-05-09T08:13:06.154Z,18.68
2024-05-09T08:16:17.030Z,18.59
2024-05-09T08:19:21.529Z,18.81
2024-05-09T08:22:36.395Z,18.86
2024-05-09T08:25:41.493Z,18.62
2024-05-09T08:29:04.153Z,18.81
2024-05-09T08:32:14.006Z,19.07
2024-05-09T08:35:19.983Z,19.10
2024-05-09T08:38:29.209Z,19.57
2024-05-09T08:41:49.864Z,19.82
2024-05-09T08:45:09.703Z,19.85
2024-05-09T08:48:23.848Z,19.80
2024-05-09T08:51:45.799Z,19.91
2024-05-09T08:54:59.767Z,19.92
2024-05-09T08:58:05.708Z,19.66
2024-05-09T09:01:11.941Z,19.87
2024-05-09T09:04:30.817Z,19.76
2024-05-09T09:07:56.665Z,19.76
2024-05-09T09:11:08.450Z,19.78
2024-05-09T09:14:19.952Z,19.48
2024-05-09T09:17:29.607Z,19.81
2024-05-09T09:20:40.049Z,19.70
2024-05-09T09:24:07.531Z,19.92
2024-05-09T09:27:17.153Z,20.09
2024-05-09T09:30:34.778Z,20.10
2024-05-09T09:33:57.776Z,20.10
2024-05-09T09:37:11.564Z,19.97
2024-05-09T09:40:30.990Z,20.11
2024-05-09T09:43:52.681Z,20.05
2024-05-09T09:47:08.599Z,20.29
2024-05-09T09:50:34.822Z,20.14
2024-05-09T09:53:45.132Z,20.38
2024-05-09T09:57:03.623Z,20.14
2024-05-09T10:00:33.159Z,20.55
2024-05-09T10:03:43.200Z,20.72
2024-05-09T10:07:00.947Z,21.00
2024-05-09T10:10:07.053Z,21.08
2024-05-09T10:13:20.715Z,21.09
2024-05-09T10:16:32.417Z,20.76
2024-05-09T10:19:43.947Z,20.94
2024-05-09T10:22:54.806Z,21.24
2024-05-09T10:26:09.087Z,21.24
2024-05-09T10:29:21.432Z,21.38
2024-05-09T10:32:39.610Z,21.33
2024-05-09T10:35:55.390Z,21.18
2024-05-09T10:39:17.304Z,21.65
2024-05-09T10:42:37.299Z,21.92
2024-05-09T10:45:57.325Z,22.11
2024-05-09T10:49:20.068Z,22.50
2024-05-09T10:52:37.582Z,21.49
2024-05-09T10:56:10.768Z,21.84
2024-05-09T10:59:27.201Z,22.13
2024-05-09T11:02:48.605Z,22.25
2024-05-09T11:06:10.823Z,22.52
2024-05-09T11:09:32.781Z,22.65
2024-05-09T11:12:39.988Z,22.00
2024-05-09T11:15:57.779Z,23.08
2024-05-09T11:19:15.107Z,23.12
2024-05-09T11:22:46.119Z,23.30
2024-05-09T11:26:15.608Z,23.41
2024-05-09T11:29:43.967Z,23.53
2024-05-09T11:32:53.957Z,23.64
2024-05-09T11:36:10.190Z,23.86
2024-05-09T11:39:27.996Z,24.16
2024-05-09T11:42:48.239Z,24.36
2024-05-09T11:46:15.664Z,24.05
2024-05-09T11:49:30.320Z,24.14
2024-05-09T11:52:48.358Z,24.54
2024-05-09T11:56:19.066Z,25.72
2024-05-09T11:59:36.283Z,26.18
2024-05-09T12:03:07.074Z,26.51
2024-05-09T12:06:23.123Z,27.57
2024-05-09T12:09:46.970Z,27.22
2024-05-09T12:13:10.193Z,28.51
2024-05-09T12:16:37.121Z,28.27
2024-05-09T12:19:58.148Z,29.52
2024-05-09T12:23:17.681Z,28.27
2024-05-09T12:26:46.800Z,28.44
2024-05-09T12:29:50.617Z,29.22
2024-05-09T12:32:56.619Z,29.93
2024-05-09T12:36:14.506Z,28.92
2024-05-09T12:39:29.519Z,28.26
2024-05-09T12:42:46.055Z,28.10
2024-05-09T12:46:07.844Z,30.24
2024-05-09T12:49:25.633Z,31.67
2024-05-09T12:52:34.063Z,31.72
2024-05-09T12:56:01.851Z,31.75
2024-05-09T12:59:28.278Z,32.12
2024-05-09T13:02:39.011Z,31.06
2024-05-09T13:05:56.791Z,31.19
2024-05-09T13:09:09.623Z,31.17
2024-05-09T13:12:14.097Z,31.27
2024-05-09T13:15:19.673Z,31.83
2024-05-09T13:18:36.437Z,32.73
2024-05-09T13:21:57.293Z,31.11
2024-05-09T13:25:14.324Z,31.09
2024-05-09T13:28:28.497Z,32.70
2024-05-09T13:31:43.128Z,33.84
2024-05-09T13:35:01.018Z,33.74
2024-05-09T13:38:14.156Z,34.40
2024-05-09T13:41:27.322Z,33.64
2024-05-09T13:44:34.939Z,32.38
2024-05-09T13:47:42.645Z,33.06
2024-05-09T13:50:53.819Z,31.92
2024-05-09T13:54:00.830Z,32.23
2024-05-09T13:57:15.167Z,32.84
2024-05-09T14:00:47.894Z,32.54
2024-05-09T14:04:00.472Z,33.51
2024-05-09T14:07:13.460Z,32.36
2024-05-09T14:10:28.480Z,34.72
2024-05-09T14:13:41.380Z,35.05
2024-05-09T14:16:56.142Z,35.71
2024-05-09T14:20:06.154Z,34.35
2024-05-09T14:23:21.720Z,34.80
2024-05-09T14:26:44.534Z,35.38
2024-05-09T14:30:00.729Z,36.22
2024-05-09T14:33:09.452Z,34.34
2024-05-09T14:36:34.674Z,31.26
2024-05-09T14:40:07.288Z,31.43
2024-05-09T14:43:28.406Z,29.26
2024-05-09T14:46:47.714Z,28.73
2024-05-09T14:50:16.856Z,28.26
2024-05-09T14:53:36.828Z,27.30
2024-05-09T14:56:47.592Z,26.94
2024-05-09T15:00:20.863Z,27.24
2024-05-09T15:03:42.232Z,27.22
2024-05-09T15:07:11.565Z,27.53
2024-05-09T15:10:37.190Z,27.40
2024-05-09T15:13:47.863Z,27.47
2024-05-09T15:16:52.512Z,27.45
2024-05-09T15:19:57.089Z,27.38
2024-05-09T15:23:02.078Z,27.19
2024-05-09T15:26:22.653Z,26.94
2024-05-09T15:29:43.243Z,26.72
2024-05-09T15:33:16.536Z,27.08
2024-05-09T15:36:43.307Z,26.86
2024-05-09T15:40:07.424Z,26.23
2024-05-09T15:43:14.061Z,27.04
2024-05-09T15:46:36.103Z,26.96
2024-05-09T15:49:48.286Z,26.43
2024-05-09T15:53:12.950Z,26.24
2024-05-09T15:56:33.761Z,26.33
2024-05-09T15:59:38.939Z,25.95
2024-05-09T16:02:49.111Z,25.64
2024-05-09T16:05:57.775Z,25.35
2024-05-09T16:09:06.714Z,25.35
2024-05-09T16:12:29.784Z,25.30
2024-05-09T16:15:50.755Z,25.27
2024-05-09T16:18:59.851Z,25.26
2024-05-09T16:22:10.631Z,25.19
2024-05-09T16:25:16.230Z,25.04
2024-05-09T16:28:27.389Z,24.68
2024-05-09T16:31:37.497Z,24.65
2024-05-09T16:35:00.119Z,24.63
2024-05-09T16:38:10.105Z,24.22
2024-05-09T16:41:25.381Z,24.64
2024-05-09T16:44:37.975Z,24.61
2024-05-09T16:47:51.959Z,24.53
2024-05-09T16:51:06.452Z,24.57
2024-05-09T16:54:31.548Z,25.83
2024-05-09T16:57:54.858Z,26.97
2024-05-09T17:01:03.727Z,28.05
2024-05-09T17:04:13.658Z,28.81
2024-05-09T17:07:26.582Z,28.63
2024-05-09T17:10:43.376Z,27.39
2024-05-09T17:14:08.164Z,26.90
2024-05-09T17:17:24.758Z,26.60
2024-05-09T17:20:48.304Z,26.21
2024-05-09T17:24:03.193Z,26.33
2024-05-09T17:27:16.165Z,25.86
2024-05-09T17:30:32.585Z,25.41
2024-05-09T17:34:05.648Z,24.98
2024-05-09T17:37:36.259Z,24.78
2024-05-09T17:41:04.218Z,24.66
2024-05-09T17:44:26.226Z,24.39
2024-05-09T17:47:42.668Z,24.05
2024-05-09T17:50:46.779Z,23.88
2024-05-09T17:53:51.683Z,23.77
2024-05-09T17:57:02.220Z,23.63
2024-05-09T18:00:29.160Z,23.50
2024-05-09T18:03:44.213Z,23.36
2024-05-09T18:06:59.248Z,23.09
2024-05-09T18:10:29.804Z,22.79
2024-05-09T18:13:49.415Z,23.05
2024-05-09T18:17:01.044Z,22.96
2024-05-09T18:20:36.110Z,22.82
2024-05-09T18:24:21.695Z,22.64
2024-05-09T18:27:50.497Z,22.41
2024-05-09T18:31:15.579Z,22.27
2024-05-09T18:34:39.529Z,22.22
2024-05-09T18:37:55.780Z,22.05
2024-05-09T18:41:17.305Z,21.96
2024-05-09T18:44:42.415Z,21.86
2024-05-09T18:47:56.237Z,21.73
2024-05-09T18:51:18.293Z,21.65
2024-05-09T18:54:36.780Z,21.47
2024-05-09T18:58:01.578Z,21.36
2024-05-09T19:01:20.400Z,21.27
2024-05-09T19:04:26.092Z,21.23
2024-05-09T19:07:34.651Z,21.19
2024-05-09T19:10:52.204Z,21.08
2024-05-09T19:14:07.776Z,21.04
2024-05-09T19:18:14.729Z,20.89
2024-05-09T19:27:28.463Z,20.57
2024-05-09T19:30:40.909Z,20.51
2024-05-09T19:33:54.385Z,20.38
2024-05-09T19:37:13.250Z,20.29
2024-05-09T19:40:24.984Z,19.96
2024-05-09T19:43:56.887Z,19.62
2024-05-09T19:47:00.817Z,19.69
2024-05-09T19:50:10.726Z,19.28
2024-05-09T19:53:39.407Z,19.32
2024-05-09T19:57:14.097Z,19.25
2024-05-09T20:00:40.294Z,19.05
2024-05-09T20:04:01.337Z,19.14
2024-05-09T20:07:20.168Z,18.93
2024-05-09T20:10:45.248Z,18.80
2024-05-09T20:14:08.921Z,18.45
2024-05-09T20:17:30.006Z,18.51
2024-05-09T20:20:54.404Z,18.30
2024-05-09T20:24:14.505Z,18.25
2024-05-09T20:27:39.093Z,18.32
2024-05-09T20:31:00.375Z,18.10
2024-05-09T20:34:07.460Z,18.18
2024-05-09T20:37:12.294Z,18.17
2024-05-09T20:40:28.748Z,18.33
2024-05-09T20:43:41.123Z,18.32
2024-05-09T20:47:04.844Z,17.96
2024-05-09T20:50:27.387Z,18.06
2024-05-09T20:53:48.707Z,17.91
2024-05-09T20:57:10.788Z,17.63
2024-05-09T21:00:26.180Z,17.50
2024-05-09T21:03:51.095Z,17.40
2024-05-09T21:07:12.751Z,17.56
2024-05-09T21:10:22.413Z,17.56
2024-05-09T21:13:48.740Z,17.64
2024-05-09T21:17:05.072Z,17.57
2024-05-09T21:20:29.096Z,17.54
2024-05-09T21:23:58.886Z,17.52
2024-05-09T21:27:23.585Z,17.44
2024-05-09T21:30:42.766Z,17.35
2024-05-09T21:34:07.809Z,17.23
2024-05-09T21:37:18.725Z,16.98
2024-05-09T21:40:40.006Z,16.70
2024-05-09T21:44:08.655Z,16.65
2024-05-09T21:47:18.736Z,16.54
2024-05-09T21:50:31.614Z,16.54
2024-05-09T21:53:47.414Z,16.46
2024-05-09T21:57:01.448Z,16.38
2024-05-09T22:00:28.991Z,16.06
2024-05-09T22:03:53.296Z,16.14
2024-05-09T22:07:17.820Z,15.99
2024-05-09T22:10:26.980Z,16.07
2024-05-09T22:13:54.163Z,16.15
2024-05-09T22:17:06.295Z,16.19
2024-05-09T22:20:34.398Z,16.23
2024-05-09T22:23:50.610Z,16.15
2024-05-09T22:27:07.740Z,16.16
2024-05-09T22:30:21.298Z,16.19
2024-05-09T22:33:35.734Z,16.19
2024-05-09T22:36:39.767Z,16.24
2024-05-09T22:39:55.667Z,16.15
2024-05-09T22:43:25.428Z,16.05
2024-05-09T22:46:40.834Z,16.11
2024-05-09T22:50:02.914Z,16.03
2024-05-09T22:53:23.842Z,16.09
2024-05-09T22:56:49.225Z,15.83
2024-05-09T23:00:09.776Z,15.55
2024-05-09T23:03:27.145Z,15.28
2024-05-09T23:06:38.012Z,15.33
2024-05-09T23:10:01.760Z,15.21
2024-05-09T23:13:24.933Z,15.09
2024-05-09T23:16:42.745Z,14.98
2024-05-09T23:20:06.862Z,15.13
2024-05-09T23:23:28.916Z,15.00
2024-05-09T23:26:47.635Z,14.99
2024-05-09T23:30:12.574Z,15.16
2024-05-09T23:33:40.170Z,15.13
2024-05-09T23:36:50.259Z,15.25
2024-05-09T23:40:18.753Z,15.20
2024-05-09T23:43:42.017Z,15.20
2024-05-09T23:46:56.767Z,15.29
2024-05-09T23:50:13.788Z,15.29
2024-05-09T23:53:30.833Z,15.25
2024-05-09T23:56:38.752Z,15.15
2024-05-09T23:59:47.176Z,15.12
